createdAt,value
2023-03-16T00:00:49.768Z,2.48
2023-03-16T00:03:19.596Z,2.61
2023-03-16T00:05:50.432Z,2.65
2023-03-16T00:08:19.366Z,2.64
2023-03-16T00:10:47.769Z,2.77
2023-03-16T00:13:18.426Z,3.05
2023-03-16T00:16:04.475Z,3.14
2023-03-16T00:18:39.111Z,2.97
2023-03-16T00:21:06.919Z,2.86
2023-03-16T00:23:35.980Z,2.85
2023-03-16T00:26:09.863Z,2.74
2023-03-16T00:28:37.347Z,2.69
2023-03-16T00:31:14.758Z,2.74
2023-03-16T00:33:42.947Z,2.72
2023-03-16T00:36:11.510Z,2.32
2023-03-16T00:38:45.290Z,2.23
2023-03-16T00:41:15.647Z,2.27
2023-03-16T00:43:45.481Z,2.30
2023-03-16T00:46:16.638Z,2.37
2023-03-16T00:48:47.276Z,2.32
2023-03-16T00:51:18.674Z,2.66
2023-03-16T00:53:47.207Z,2.79
2023-03-16T00:56:15.648Z,2.28
2023-03-16T00:58:43.559Z,1.76
2023-03-16T01:01:20.496Z,1.74
2023-03-16T01:03:48.825Z,1.83
2023-03-16T01:06:20.752Z,1.74
2023-03-16T01:08:49.145Z,1.94
2023-03-16T01:11:23.044Z,2.16
2023-03-16T01:13:54.360Z,2.26
2023-03-16T01:16:24.638Z,2.12
2023-03-16T01:18:53.851Z,1.89
2023-03-16T01:21:21.836Z,1.94
2023-03-16T01:23:50.529Z,2.22
2023-03-16T01:26:18.887Z,2.40
2023-03-16T01:28:47.994Z,2.33
2023-03-16T01:31:16.076Z,2.36
2023-03-16T01:33:45.182Z,2.85
2023-03-16T01:36:19.899Z,2.64
2023-03-16T01:39:15.359Z,2.34
2023-03-16T01:41:47.950Z,2.05
2023-03-16T01:44:28.221Z,2.19
2023-03-16T01:46:56.719Z,2.10
2023-03-16T01:49:48.160Z,2.31
2023-03-16T01:52:23.055Z,2.20
2023-03-16T01:54:57.722Z,1.68
2023-03-16T01:57:36.936Z,1.91
2023-03-16T02:00:19.879Z,2.08
2023-03-16T02:03:15.072Z,1.72
2023-03-16T02:06:12.982Z,1.58
2023-03-16T02:08:49.226Z,1.81
2023-03-16T02:11:18.168Z,2.24
2023-03-16T02:14:03.216Z,1.82
2023-03-16T02:16:30.862Z,2.02
2023-03-16T02:18:58.186Z,1.90
2023-03-16T02:21:47.253Z,2.29
2023-03-16T02:24:14.507Z,2.47
2023-03-16T02:27:07.644Z,2.23
2023-03-16T02:30:12.073Z,2.14
2023-03-16T02:32:57.897Z,2.29
2023-03-16T02:35:25.443Z,1.96
2023-03-16T02:37:52.724Z,1.83
2023-03-16T02:40:32.709Z,1.86
2023-03-16T02:43:33.419Z,1.96
2023-03-16T02:46:31.321Z,1.70
2023-03-16T02:49:20.168Z,1.44
2023-03-16T02:51:48.406Z,1.11
2023-03-16T02:54:17.423Z,1.28
2023-03-16T02:56:45.940Z,1.37
2023-03-16T02:59:13.442Z,1.19
2023-03-16T03:01:40.737Z,1.35
2023-03-16T03:04:08.864Z,1.58
2023-03-16T03:06:36.255Z,1.46
2023-03-16T03:09:06.098Z,1.68
2023-03-16T03:11:33.679Z,1.61
2023-03-16T03:14:00.881Z,1.53
2023-03-16T03:16:28.832Z,1.48
2023-03-16T03:18:58.456Z,1.45
2023-03-16T03:21:28.494Z,1.46
2023-03-16T03:23:55.876Z,1.18
2023-03-16T03:26:24.584Z,1.21
2023-03-16T03:28:52.701Z,1.25
2023-03-16T03:31:23.058Z,1.56
2023-03-16T03:33:53.623Z,1.67
2023-03-16T03:36:22.324Z,1.84
2023-03-16T03:38:49.980Z,1.65
2023-03-16T03:41:19.674Z,1.47
2023-03-16T03:43:47.366Z,1.45
2023-03-16T03:46:18.026Z,1.18
2023-03-16T03:48:45.609Z,1.45
2023-03-16T03:51:15.291Z,1.02
2023-03-16T03:54:04.275Z,0.94
2023-03-16T03:56:34.941Z,0.89
2023-03-16T03:59:02.965Z,0.84
2023-03-16T04:01:50.472Z,1.17
2023-03-16T04:04:17.799Z,0.92
2023-03-16T04:06:45.947Z,0.84
2023-03-16T04:09:14.150Z,0.78
2023-03-16T04:11:41.506Z,0.75
2023-03-16T04:14:08.944Z,0.96
2023-03-16T04:16:39.295Z,1.09
2023-03-16T04:19:07.084Z,0.94
2023-03-16T04:21:34.413Z,1.15
2023-03-16T04:24:04.505Z,1.21
2023-03-16T04:26:35.178Z,0.87
2023-03-16T04:29:04.231Z,0.60
2023-03-16T04:31:33.474Z,0.70
2023-03-16T04:34:02.360Z,1.21
2023-03-16T04:36:29.770Z,1.72
2023-03-16T04:38:57.152Z,1.17
2023-03-16T04:41:25.324Z,1.03
2023-03-16T04:44:00.941Z,1.12
2023-03-16T04:46:29.511Z,1.11
2023-03-16T04:48:59.441Z,1.02
2023-03-16T04:51:30.249Z,0.80
2023-03-16T04:54:05.737Z,0.55
2023-03-16T04:56:41.683Z,0.32
2023-03-16T04:59:26.206Z,0.43
2023-03-16T05:02:11.867Z,0.72
2023-03-16T05:04:40.279Z,0.75
2023-03-16T05:07:11.715Z,0.70
2023-03-16T05:09:42.943Z,1.02
2023-03-16T05:12:11.300Z,0.81
2023-03-16T05:14:39.620Z,1.18
2023-03-16T05:17:22.225Z,1.76
2023-03-16T05:19:50.133Z,1.65
2023-03-16T05:22:19.147Z,1.73
2023-03-16T05:25:15.112Z,1.02
2023-03-16T05:27:50.853Z,0.88
2023-03-16T05:30:29.332Z,1.53
2023-03-16T05:32:59.404Z,2.04
2023-03-16T05:35:28.635Z,2.11
2023-03-16T05:38:00.898Z,2.08
2023-03-16T05:40:29.723Z,2.02
2023-03-16T05:43:06.522Z,1.93
2023-03-16T05:45:38.622Z,2.16
2023-03-16T05:48:14.950Z,2.07
2023-03-16T05:50:46.866Z,1.90
2023-03-16T05:53:17.117Z,1.78
2023-03-16T05:55:44.616Z,1.90
2023-03-16T05:58:15.424Z,2.11
2023-03-16T06:00:44.339Z,2.23
2023-03-16T06:03:29.242Z,2.60
2023-03-16T06:05:59.254Z,2.83
2023-03-16T06:08:33.306Z,2.86
2023-03-16T06:11:11.896Z,2.99
2023-03-16T06:13:41.069Z,3.31
2023-03-16T06:16:14.023Z,3.19
2023-03-16T06:18:41.688Z,2.96
2023-03-16T06:21:09.792Z,3.24
2023-03-16T06:23:38.053Z,3.51
2023-03-16T06:26:07.381Z,3.64
2023-03-16T06:28:36.630Z,3.67
2023-03-16T06:31:03.993Z,3.84
2023-03-16T06:33:35.461Z,3.84
2023-03-16T06:36:04.100Z,4.02
2023-03-16T06:38:38.911Z,4.06
2023-03-16T06:41:15.409Z,4.33
2023-03-16T06:43:45.760Z,4.02
2023-03-16T06:46:13.419Z,3.90
2023-03-16T06:48:41.963Z,4.09
2023-03-16T06:51:09.797Z,4.04
2023-03-16T06:53:37.742Z,4.15
2023-03-16T06:56:05.594Z,4.52
2023-03-16T06:58:37.271Z,4.64
2023-03-16T07:01:05.594Z,4.67
2023-03-16T07:03:32.798Z,4.72
2023-03-16T07:06:08.758Z,4.90
2023-03-16T07:08:36.421Z,4.58
2023-03-16T07:11:04.599Z,4.75
2023-03-16T07:13:31.928Z,5.23
2023-03-16T07:15:59.436Z,6.07
2023-03-16T07:18:28.133Z,7.67
2023-03-16T07:20:55.590Z,10.02
2023-03-16T07:23:26.156Z,11.82
2023-03-16T07:25:58.791Z,13.61
2023-03-16T07:28:27.913Z,15.64
2023-03-16T07:31:03.389Z,17.37
2023-03-16T07:33:37.295Z,18.10
2023-03-16T07:36:09.425Z,18.08
2023-03-16T07:38:41.753Z,17.09
2023-03-16T07:41:09.771Z,15.48
2023-03-16T07:43:37.980Z,14.31
2023-03-16T07:46:06.445Z,14.18
2023-03-16T07:48:35.826Z,16.74
2023-03-16T07:51:04.588Z,19.09
2023-03-16T07:53:32.304Z,20.47
2023-03-16T07:56:14.737Z,21.48
2023-03-16T07:58:45.367Z,21.50
2023-03-16T08:01:12.805Z,21.88
2023-03-16T08:03:40.301Z,21.46
2023-03-16T08:06:07.849Z,22.74
2023-03-16T08:08:36.248Z,23.93
2023-03-16T08:11:03.548Z,25.00
2023-03-16T08:13:50.498Z,26.46
2023-03-16T08:16:19.025Z,27.04
2023-03-16T08:18:49.487Z,27.23
2023-03-16T08:21:18.688Z,27.40
2023-03-16T08:23:50.574Z,27.20
2023-03-16T08:26:21.333Z,27.56
2023-03-16T08:28:53.633Z,27.90
2023-03-16T08:31:25.276Z,28.40
2023-03-16T08:34:00.855Z,29.38
2023-03-16T08:36:30.677Z,30.38
2023-03-16T08:39:06.862Z,30.53
2023-03-16T08:41:40.970Z,30.78
2023-03-16T08:44:17.506Z,30.52
2023-03-16T08:46:45.292Z,29.93
2023-03-16T08:49:14.450Z,28.62
2023-03-16T08:51:44.937Z,26.89
2023-03-16T08:54:12.734Z,25.07
2023-03-16T08:56:39.930Z,24.94
2023-03-16T08:59:10.456Z,26.17
2023-03-16T09:01:44.131Z,27.41
2023-03-16T09:04:13.300Z,27.90
2023-03-16T09:06:41.554Z,28.96
2023-03-16T09:09:09.620Z,28.18
2023-03-16T09:11:36.872Z,28.74
2023-03-16T09:14:04.643Z,29.74
2023-03-16T09:16:32.030Z,28.87
2023-03-16T09:18:59.541Z,29.84
2023-03-16T09:21:27.077Z,31.08
2023-03-16T09:23:55.109Z,29.60
2023-03-16T09:26:22.626Z,29.53
2023-03-16T09:28:50.094Z,29.69
2023-03-16T09:31:20.059Z,30.51
2023-03-16T09:33:48.007Z,31.28
2023-03-16T09:36:16.135Z,32.89
2023-03-16T09:38:44.673Z,32.53
2023-03-16T09:41:48.713Z,30.42
2023-03-16T09:44:59.756Z,27.23
2023-03-16T09:47:31.247Z,26.50
2023-03-16T09:50:07.058Z,26.61
2023-03-16T09:52:58.168Z,27.70
2023-03-16T09:55:37.704Z,28.53
2023-03-16T09:58:19.001Z,30.41
2023-03-16T10:01:54.180Z,31.55
2023-03-16T10:04:56.141Z,33.38
2023-03-16T10:08:16.902Z,30.53
2023-03-16T10:11:34.296Z,30.34
2023-03-16T10:14:38.866Z,28.60
2023-03-16T10:17:33.328Z,24.73
2023-03-16T10:20:11.073Z,25.01
2023-03-16T10:22:46.090Z,26.62
2023-03-16T10:25:39.431Z,26.12
2023-03-16T10:28:06.693Z,25.21
2023-03-16T10:30:37.419Z,24.17
2023-03-16T10:33:22.021Z,24.83
2023-03-16T10:36:02.580Z,23.01
2023-03-16T10:38:55.008Z,22.09
2023-03-16T10:41:26.010Z,22.90
2023-03-16T10:44:17.084Z,23.20
2023-03-16T10:47:08.701Z,24.02
2023-03-16T10:49:42.065Z,23.50
2023-03-16T10:52:20.705Z,24.33
2023-03-16T10:55:22.598Z,24.05
2023-03-16T10:57:56.281Z,25.44
2023-03-16T11:00:41.564Z,24.52
2023-03-16T11:03:39.963Z,26.60
2023-03-16T11:06:21.198Z,27.90
2023-03-16T11:08:49.001Z,27.97
2023-03-16T11:11:31.030Z,29.88
2023-03-16T11:14:04.558Z,29.97
2023-03-16T11:17:10.624Z,25.85
2023-03-16T11:19:57.750Z,26.50
2023-03-16T11:22:27.150Z,26.06
2023-03-16T11:25:15.601Z,24.92
2023-03-16T11:28:12.866Z,24.16
2023-03-16T11:31:03.471Z,24.42
2023-03-16T11:33:32.078Z,24.28
2023-03-16T11:36:27.684Z,23.65
2023-03-16T11:39:21.009Z,23.24
2023-03-16T11:42:40.107Z,24.50
2023-03-16T11:45:54.668Z,24.00
2023-03-16T11:49:06.750Z,22.94
2023-03-16T11:52:20.530Z,24.21
2023-03-16T11:55:03.304Z,24.22
2023-03-16T11:58:28.188Z,24.00
2023-03-16T12:01:25.741Z,23.56
2023-03-16T12:04:40.071Z,24.49
2023-03-16T12:07:49.193Z,24.62
2023-03-16T12:10:31.540Z,24.43
2023-03-16T12:13:54.920Z,24.49
2023-03-16T12:16:50.322Z,23.75
2023-03-16T12:19:47.352Z,21.82
2023-03-16T12:22:25.944Z,20.35
2023-03-16T12:24:53.401Z,20.02
2023-03-16T12:27:38.705Z,21.73
2023-03-16T12:30:58.232Z,22.32
2023-03-16T12:33:59.255Z,20.80
2023-03-16T12:36:55.958Z,21.24
2023-03-16T12:40:09.005Z,21.88
2023-03-16T12:44:09.088Z,22.63
2023-03-16T12:46:56.182Z,22.62
2023-03-16T12:49:26.697Z,22.86
2023-03-16T12:52:20.519Z,22.67
2023-03-16T12:55:33.527Z,22.88
2023-03-16T12:58:08.889Z,21.25
2023-03-16T13:00:40.902Z,20.28
2023-03-16T13:03:20.446Z,19.59
2023-03-16T13:05:58.820Z,19.72
2023-03-16T13:08:30.588Z,20.57
2023-03-16T13:11:14.319Z,21.24
2023-03-16T13:14:13.541Z,20.87
2023-03-16T13:16:43.612Z,20.98
2023-03-16T13:19:29.713Z,20.60
2023-03-16T13:22:22.510Z,21.60
2023-03-16T13:25:18.718Z,20.63
2023-03-16T13:27:59.230Z,21.06
2023-03-16T13:30:46.672Z,22.00
2023-03-16T13:33:26.315Z,22.30
2023-03-16T13:35:57.486Z,22.53
2023-03-16T13:38:28.622Z,21.14
2023-03-16T13:41:04.604Z,19.36
2023-03-16T13:43:35.888Z,20.01
2023-03-16T13:46:21.340Z,19.68
2023-03-16T13:48:50.453Z,19.63
2023-03-16T13:51:22.607Z,19.08
2023-03-16T13:53:51.092Z,17.76
2023-03-16T13:56:26.884Z,17.51
2023-03-16T13:58:57.890Z,17.57
2023-03-16T14:01:32.150Z,17.91
2023-03-16T14:04:09.969Z,17.35
2023-03-16T14:06:38.414Z,17.43
2023-03-16T14:09:22.708Z,17.26
2023-03-16T14:11:50.043Z,17.26
2023-03-16T14:14:37.289Z,18.63
2023-03-16T14:17:17.796Z,18.96
2023-03-16T14:19:59.270Z,19.15
2023-03-16T14:22:36.951Z,19.34
2023-03-16T14:25:06.950Z,19.31
2023-03-16T14:27:40.629Z,17.74
2023-03-16T14:30:27.797Z,17.36
2023-03-16T14:33:25.361Z,17.52
2023-03-16T14:35:58.589Z,17.41
2023-03-16T14:38:37.206Z,16.92
2023-03-16T14:41:12.789Z,17.65
2023-03-16T14:43:56.205Z,17.43
2023-03-16T14:46:46.267Z,17.45
2023-03-16T14:49:33.913Z,17.43
2023-03-16T14:52:15.445Z,17.04
2023-03-16T14:54:42.902Z,17.42
2023-03-16T14:57:17.490Z,17.51
2023-03-16T14:59:45.405Z,17.30
2023-03-16T15:02:30.780Z,17.16
2023-03-16T15:05:01.385Z,16.79
2023-03-16T15:07:33.802Z,16.81
2023-03-16T15:10:22.179Z,17.06
2023-03-16T15:13:04.122Z,17.03
2023-03-16T15:15:32.588Z,17.42
2023-03-16T15:18:00.130Z,16.95
2023-03-16T15:20:41.442Z,16.78
2023-03-16T15:23:16.260Z,16.92
2023-03-16T15:25:46.868Z,16.80
2023-03-16T15:28:22.796Z,16.85
2023-03-16T15:30:55.162Z,16.70
2023-03-16T15:33:23.847Z,17.09
2023-03-16T15:35:58.792Z,16.84
2023-03-16T15:38:36.241Z,17.11
2023-03-16T15:41:03.797Z,17.02
2023-03-16T15:43:32.010Z,16.84
2023-03-16T15:46:00.116Z,17.14
2023-03-16T15:48:27.898Z,17.30
2023-03-16T15:51:00.619Z,17.49
2023-03-16T15:53:40.377Z,17.23
2023-03-16T15:56:19.861Z,17.15
2023-03-16T15:58:47.890Z,17.26
2023-03-16T16:01:29.797Z,17.01
2023-03-16T16:03:58.126Z,17.01
2023-03-16T16:06:26.568Z,17.11
2023-03-16T16:09:11.959Z,17.18
2023-03-16T16:11:41.242Z,16.79
2023-03-16T16:14:24.851Z,17.09
2023-03-16T16:16:54.210Z,16.61
2023-03-16T16:19:21.795Z,16.84
2023-03-16T16:21:49.132Z,16.76
2023-03-16T16:24:18.241Z,16.78
2023-03-16T16:26:53.292Z,16.20
2023-03-16T16:29:28.160Z,16.21
2023-03-16T16:31:56.007Z,16.17
2023-03-16T16:34:25.274Z,16.48
2023-03-16T16:36:55.162Z,16.32
2023-03-16T16:39:22.457Z,16.27
2023-03-16T16:41:54.397Z,16.20
2023-03-16T16:44:34.551Z,15.99
2023-03-16T16:47:09.296Z,15.94
2023-03-16T16:49:37.985Z,15.88
2023-03-16T16:52:06.507Z,15.60
2023-03-16T16:54:35.373Z,15.68
2023-03-16T16:57:03.085Z,15.86
2023-03-16T16:59:36.838Z,15.63
2023-03-16T17:02:42.151Z,15.28
2023-03-16T17:05:26.672Z,14.81
2023-03-16T17:07:55.244Z,15.10
2023-03-16T17:10:27.193Z,14.84
2023-03-16T17:12:59.517Z,15.11
2023-03-16T17:15:32.304Z,14.66
2023-03-16T17:18:10.947Z,14.64
2023-03-16T17:20:39.112Z,14.58
2023-03-16T17:23:28.161Z,14.30
2023-03-16T17:25:59.121Z,14.40
2023-03-16T17:28:32.062Z,14.09
2023-03-16T17:30:59.934Z,14.21
2023-03-16T17:33:28.666Z,14.33
2023-03-16T17:35:56.429Z,14.33
2023-03-16T17:38:25.557Z,14.27
2023-03-16T17:41:27.287Z,13.88
2023-03-16T17:44:05.874Z,13.78
2023-03-16T17:46:33.755Z,13.56
2023-03-16T17:49:01.970Z,13.46
2023-03-16T17:51:31.053Z,13.67
2023-03-16T17:53:58.266Z,13.73
2023-03-16T17:56:27.666Z,13.66
2023-03-16T17:59:00.113Z,13.51
2023-03-16T18:01:33.809Z,13.34
2023-03-16T18:04:02.137Z,13.29
2023-03-16T18:06:31.194Z,13.15
2023-03-16T18:08:58.561Z,13.27
2023-03-16T18:11:36.511Z,13.12
2023-03-16T18:14:08.764Z,13.18
2023-03-16T18:16:36.925Z,13.23
2023-03-16T18:19:27.192Z,13.12
2023-03-16T18:21:54.615Z,12.91
2023-03-16T18:24:25.689Z,12.99
2023-03-16T18:26:55.295Z,13.03
2023-03-16T18:29:22.607Z,13.02
2023-03-16T18:31:53.519Z,13.03
2023-03-16T18:34:26.698Z,12.77
2023-03-16T18:36:55.814Z,12.62
2023-03-16T18:39:23.334Z,12.60
2023-03-16T18:41:51.198Z,12.71
2023-03-16T18:44:25.914Z,12.35
2023-03-16T18:47:02.051Z,12.64
2023-03-16T18:49:36.280Z,12.55
2023-03-16T18:52:06.009Z,12.28
2023-03-16T18:54:38.392Z,12.36
2023-03-16T18:57:25.128Z,12.26
2023-03-16T18:59:53.781Z,12.17
2023-03-16T19:02:38.897Z,12.17
2023-03-16T19:05:23.574Z,12.19
2023-03-16T19:07:52.665Z,12.08
2023-03-16T19:10:32.247Z,11.94
2023-03-16T19:12:59.847Z,12.08
2023-03-16T19:15:36.464Z,11.93
2023-03-16T19:18:04.285Z,11.99
2023-03-16T19:20:33.680Z,11.95
2023-03-16T19:23:18.958Z,11.93
2023-03-16T19:25:47.528Z,11.83
2023-03-16T19:28:33.633Z,11.73
2023-03-16T19:31:02.863Z,11.54
2023-03-16T19:33:30.549Z,11.55
2023-03-16T19:35:59.038Z,11.47
2023-03-16T19:38:26.846Z,11.38
2023-03-16T19:41:00.480Z,11.55
2023-03-16T19:43:28.891Z,11.48
2023-03-16T19:45:56.794Z,11.44
2023-03-16T19:48:32.817Z,11.13
2023-03-16T19:51:01.982Z,11.22
2023-03-16T19:53:29.417Z,11.15
2023-03-16T19:55:56.827Z,11.01
2023-03-16T19:58:36.893Z,10.94
2023-03-16T20:01:06.567Z,11.02
2023-03-16T20:03:36.705Z,10.49
2023-03-16T20:06:04.403Z,10.51
2023-03-16T20:08:31.794Z,10.62
2023-03-16T20:11:18.698Z,10.67
2023-03-16T20:13:50.270Z,10.65
2023-03-16T20:16:37.220Z,10.50
2023-03-16T20:19:15.229Z,10.62
2023-03-16T20:21:43.376Z,10.47
2023-03-16T20:24:24.412Z,10.51
2023-03-16T20:26:54.136Z,10.38
2023-03-16T20:29:29.152Z,10.44
2023-03-16T20:31:57.058Z,10.40
2023-03-16T20:34:30.867Z,10.26
2023-03-16T20:36:58.954Z,10.22
2023-03-16T20:39:30.900Z,10.21
2023-03-16T20:41:58.669Z,10.29
2023-03-16T20:44:26.712Z,10.31
2023-03-16T20:46:54.055Z,10.21
2023-03-16T20:49:29.984Z,9.90
2023-03-16T20:51:57.219Z,9.90
2023-03-16T20:54:24.543Z,9.74
2023-03-16T20:56:52.098Z,9.76
2023-03-16T20:59:24.669Z,9.75
2023-03-16T21:01:55.884Z,9.79
2023-03-16T21:04:27.978Z,9.82
2023-03-16T21:06:56.898Z,9.86
2023-03-16T21:09:31.183Z,9.82
2023-03-16T21:11:58.523Z,9.70
2023-03-16T21:14:26.342Z,9.57
2023-03-16T21:16:54.712Z,9.56
2023-03-16T21:19:24.787Z,9.65
2023-03-16T21:21:52.276Z,9.73
2023-03-16T21:24:19.615Z,9.64
2023-03-16T21:26:47.653Z,9.53
2023-03-16T21:29:24.198Z,9.49
2023-03-16T21:31:51.860Z,9.54
2023-03-16T21:34:29.173Z,9.56
2023-03-16T21:36:56.363Z,9.45
2023-03-16T21:39:25.248Z,9.34
2023-03-16T21:41:53.592Z,9.26
2023-03-16T21:44:21.318Z,9.21
2023-03-16T21:46:48.919Z,9.10
2023-03-16T21:49:16.498Z,8.93
2023-03-16T21:51:43.937Z,9.00
2023-03-16T21:54:16.259Z,8.90
2023-03-16T21:56:44.398Z,9.10
2023-03-16T21:59:12.318Z,8.79
2023-03-16T22:01:50.879Z,8.80
2023-03-16T22:04:25.932Z,8.50
2023-03-16T22:06:53.228Z,8.25
2023-03-16T22:09:22.736Z,8.43
2023-03-16T22:11:50.772Z,8.41
2023-03-16T22:14:18.392Z,8.74
2023-03-16T22:16:45.907Z,8.55
2023-03-16T22:19:17.870Z,8.76
2023-03-16T22:21:47.249Z,8.90
2023-03-16T22:24:23.938Z,8.67
2023-03-16T22:26:53.399Z,8.43
2023-03-16T22:29:30.857Z,8.33
2023-03-16T22:32:14.501Z,8.38
2023-03-16T22:34:51.020Z,8.69
2023-03-16T22:37:26.458Z,8.47
2023-03-16T22:39:57.212Z,8.40
2023-03-16T22:42:35.741Z,8.06
2023-03-16T22:45:18.917Z,8.25
2023-03-16T22:47:47.786Z,8.19
2023-03-16T22:50:18.615Z,8.23
2023-03-16T22:52:52.975Z,7.99
2023-03-16T22:55:37.124Z,8.06
2023-03-16T22:58:28.446Z,7.91
2023-03-16T23:00:55.939Z,7.83
2023-03-16T23:03:24.272Z,7.75
2023-03-16T23:05:52.244Z,7.79
2023-03-16T23:08:23.704Z,7.75
2023-03-16T23:10:53.514Z,7.42
2023-03-16T23:13:25.590Z,7.42
2023-03-16T23:15:53.559Z,7.43
2023-03-16T23:18:26.794Z,7.49
2023-03-16T23:20:54.012Z,7.31
2023-03-16T23:23:21.319Z,7.26
2023-03-16T23:25:49.024Z,7.13
2023-03-16T23:28:25.024Z,7.14
2023-03-16T23:30:52.328Z,6.98
2023-03-16T23:33:19.852Z,6.98
2023-03-16T23:35:47.557Z,7.04
2023-03-16T23:38:14.833Z,7.29
2023-03-16T23:40:42.212Z,7.10
2023-03-16T23:43:09.851Z,7.24
2023-03-16T23:45:46.536Z,7.23
2023-03-16T23:48:20.691Z,7.31
2023-03-16T23:50:54.599Z,7.29
2023-03-16T23:53:24.101Z,7.06
2023-03-16T23:55:52.546Z,7.04
2023-03-16T23:58:22.291Z,6.99
